Time;durP1;ratioP1;P1;durP2;ratioP2;P2;SDS_P1;SDS_P2;PMS_P1;PMS_P2;Temp;Humidity;BMP_temperature;BMP_pressure;BME280_temperature;BME280_humidity;BME280_pressure;Samples;Min_cycle;Max_cycle;Signal;HPM_P1;HPM_P2
2022/04/08 00:00:42;;;;;;;2.30;1.10;;;;;;;8.85;73.25;97619.33;84619;1330;23045;-76
2022/04/08 00:02:52;;;;;;;2.00;1.20;;;;;;;8.86;73.30;97604.81;84578;1332;23040;-76
2022/04/08 00:05:01;;;;;;;2.40;1.20;;;;;;;8.87;73.18;97613.58;84653;1327;25303;-81
2022/04/08 00:07:10;;;;;;;1.80;1.50;;;;;;;8.91;73.38;97612.24;84642;1328;22691;-81
2022/04/08 00:09:21;;;;;;;7.60;1.80;;;;;;;8.91;73.37;97614.98;84593;1331;22633;-82
2022/04/08 00:11:31;;;;;;;2.70;1.30;;;;;;;8.93;73.12;97624.21;84638;1327;22598;-83
2022/04/08 00:13:40;;;;;;;3.60;1.40;;;;;;;8.92;73.17;97626.05;84641;1330;22606;-82
2022/04/08 00:15:52;;;;;;;3.70;1.60;;;;;;;8.89;73.06;97621.61;84592;1329;22587;-81
2022/04/08 00:18:01;;;;;;;2.30;1.60;;;;;;;8.86;73.06;97625.99;84627;1329;22616;-75
2022/04/08 00:20:12;;;;;;;1.40;1.30;;;;;;;8.84;72.89;97628.05;84631;1329;22646;-75
2022/04/08 00:22:23;;;;;;;3.70;1.30;;;;;;;8.83;72.92;97628.11;84588;1330;24268;-76
2022/04/08 00:24:36;;;;;;;4.10;1.90;;;;;;;8.83;72.97;97626.27;84610;1332;24831;-76
2022/04/08 00:26:46;;;;;;;3.80;1.40;;;;;;;8.83;72.97;97629.23;84628;1328;22625;-76
2022/04/08 00:28:56;;;;;;;5.60;1.10;;;;;;;8.84;72.98;97618.90;84640;1329;23715;-77
2022/04/08 00:31:05;;;;;;;2.30;1.20;;;;;;;8.83;73.05;97614.42;84651;1330;25423;-77
2022/04/08 00:33:14;;;;;;;4.20;2.10;;;;;;;8.83;73.23;97608.66;84597;1329;26490;-77
2022/04/08 00:35:27;;;;;;;1.90;1.20;;;;;;;8.82;72.86;97602.11;84644;1330;24278;-76
2022/04/08 00:37:38;;;;;;;2.80;1.30;;;;;;;8.82;72.86;97592.59;84589;1327;22839;-78
2022/04/08 00:39:51;;;;;;;2.50;1.80;;;;;;;8.82;72.82;97587.54;84661;1328;25341;-83
2022/04/08 00:42:02;;;;;;;2.80;1.50;;;;;;;8.80;72.86;97589.59;84581;1329;23812;-81
2022/04/08 00:44:12;;;;;;;4.00;1.70;;;;;;;8.77;72.61;97589.65;84651;1328;26622;-76
2022/04/08 00:46:21;;;;;;;2.20;1.50;;;;;;;8.74;72.58;97600.81;84626;1328;22630;-77
2022/04/08 00:48:30;;;;;;;2.30;1.40;;;;;;;8.72;72.55;97594.84;84601;1332;22637;-76
2022/04/08 00:50:41;;;;;;;1.60;1.50;;;;;;;8.72;72.66;97595.76;84630;1326;24360;-77
2022/04/08 00:52:58;;;;;;;1.60;1.00;;;;;;;8.72;72.66;97594.87;84653;1328;22830;-76
2022/04/08 00:55:10;;;;;;;1.90;1.20;;;;;;;8.73;72.78;97595.34;84612;1329;23786;-76
2022/04/08 00:57:19;;;;;;;1.70;1.10;;;;;;;8.73;72.57;97601.93;84606;1331;24352;-77
2022/04/08 00:59:28;;;;;;;1.70;1.30;;;;;;;8.74;72.48;97597.70;84598;1329;26486;-73
2022/04/08 01:01:37;;;;;;;2.20;1.30;;;;;;;8.74;72.46;97600.98;84618;1327;24360;-76
2022/04/08 01:03:47;;;;;;;1.70;1.00;;;;;;;8.73;72.41;97601.58;84642;1321;22766;-81
2022/04/08 01:05:56;;;;;;;2.00;1.30;;;;;;;8.72;72.44;97599.75;84629;1324;22637;-81
2022/04/08 01:08:08;;;;;;;1.50;1.20;;;;;;;8.70;72.50;97604.95;84607;1334;22607;-76
2022/04/08 01:10:17;;;;;;;2.10;1.70;;;;;;;8.68;72.49;97603.36;84652;1329;22754;-76
2022/04/08 01:12:31;;;;;;;2.60;1.20;;;;;;;8.69;72.45;97609.90;84567;1330;22619;-76
2022/04/08 01:14:42;;;;;;;2.40;1.40;;;;;;;8.70;72.45;97606.15;84662;1330;22595;-74
2022/04/08 01:16:51;;;;;;;3.40;1.40;;;;;;;8.71;72.60;97614.39;84575;1326;22606;-75
2022/04/08 01:19:00;;;;;;;2.30;1.80;;;;;;;8.72;72.40;97619.91;84581;1329;22725;-80
2022/04/08 01:21:13;;;;;;;3.10;1.60;;;;;;;8.72;72.43;97620.41;84658;1329;22584;-81
2022/04/08 01:23:25;;;;;;;2.80;1.40;;;;;;;8.72;72.37;97627.38;84555;1334;25439;-81
2022/04/08 01:25:34;;;;;;;1.90;1.10;;;;;;;8.70;72.41;97628.88;84604;1332;23972;-82
2022/04/08 01:27:44;;;;;;;1.60;1.30;;;;;;;8.69;72.22;97637.48;84666;1328;22586;-80
2022/04/08 01:29:54;;;;;;;2.00;1.30;;;;;;;8.67;72.13;97640.09;84622;1329;25617;-75
2022/04/08 01:32:03;;;;;;;2.40;1.20;;;;;;;8.65;72.23;97643.91;84588;1330;22683;-81
2022/04/08 01:34:12;;;;;;;1.40;1.30;;;;;;;8.61;72.38;97644.33;84613;1327;22788;-80
2022/04/08 01:36:24;;;;;;;2.10;1.30;;;;;;;8.59;72.35;97643.96;84635;1328;26424;-81
2022/04/08 01:38:35;;;;;;;1.40;1.10;;;;;;;8.60;72.33;97646.55;84660;1330;22672;-81
2022/04/08 01:40:45;;;;;;;2.40;1.60;;;;;;;8.61;72.21;97653.74;84638;1332;24085;-81
2022/04/08 01:42:55;;;;;;;2.50;1.40;;;;;;;8.62;72.07;97655.96;84633;1323;22585;-81
2022/04/08 01:45:05;;;;;;;2.90;1.20;;;;;;;8.61;72.17;97655.98;84541;1331;22633;-76
2022/04/08 01:47:14;;;;;;;3.00;1.20;;;;;;;8.60;71.82;97659.36;84572;1329;22611;-77
2022/04/08 01:49:24;;;;;;;2.00;1.10;;;;;;;8.58;71.69;97661.42;84574;1328;24242;-83
2022/04/08 01:51:37;;;;;;;3.10;1.50;;;;;;;8.56;71.60;97670.95;84628;1329;22593;-81
2022/04/08 01:53:46;;;;;;;2.40;1.10;;;;;;;8.54;71.52;97668.52;84573;1334;22757;-82
2022/04/08 01:55:56;;;;;;;2.80;1.60;;;;;;;8.53;71.49;97670.85;84677;1330;23065;-82
2022/04/08 01:58:06;;;;;;;3.80;1.40;;;;;;;8.51;71.38;97676.50;84574;1330;22780;-77
2022/04/08 02:00:17;;;;;;;3.10;1.50;;;;;;;8.51;71.39;97680.34;84640;1331;22597;-74
2022/04/08 02:02:30;;;;;;;1.80;1.30;;;;;;;8.50;71.09;97680.92;84535;1326;22593;-76
2022/04/08 02:04:39;;;;;;;1.60;1.30;;;;;;;8.50;70.83;97683.91;84607;1329;22625;-82
2022/04/08 02:06:49;;;;;;;4.20;1.60;;;;;;;8.48;70.65;97685.23;84639;1332;22602;-81
2022/04/08 02:08:58;;;;;;;4.20;1.40;;;;;;;8.46;70.10;97690.77;84616;1329;22746;-76
2022/04/08 02:11:08;;;;;;;3.60;1.40;;;;;;;8.44;70.07;97687.52;84599;1331;22788;-75
2022/04/08 02:13:17;;;;;;;2.60;1.10;;;;;;;8.40;69.39;97684.13;84601;1329;23957;-76
2022/04/08 02:15:32;;;;;;;2.60;1.30;;;;;;;8.36;69.45;97687.30;84560;1329;22556;-76
2022/04/08 02:17:42;;;;;;;3.20;1.40;;;;;;;8.35;68.88;97693.68;84633;1332;22605;-76
2022/04/08 02:19:54;;;;;;;3.80;1.40;;;;;;;8.33;68.60;97692.78;84562;1332;24248;-81
2022/04/08 02:22:03;;;;;;;2.80;1.30;;;;;;;8.32;68.14;97696.52;84580;1334;22677;-82
2022/04/08 02:24:13;;;;;;;1.40;1.00;;;;;;;8.32;67.87;97698.06;84595;1329;23960;-81
2022/04/08 02:26:23;;;;;;;3.30;1.60;;;;;;;8.31;67.77;97700.02;84623;1330;24238;-80
2022/04/08 02:28:42;;;;;;;4.50;1.20;;;;;;;8.31;67.19;97703.52;84687;1329;22682;-76
2022/04/08 02:31:22;;;;;;;2.70;1.60;;;;;;;8.29;67.04;97702.91;84690;1330;22607;-80
2022/04/08 02:33:48;;;;;;;4.60;1.20;;;;;;;8.27;67.06;97706.55;84683;1325;22701;-79
2022/04/08 02:36:07;;;;;;;3.70;1.30;;;;;;;8.25;66.91;97713.95;84697;1329;22571;-75
2022/04/08 02:38:18;;;;;;;1.90;1.10;;;;;;;8.23;66.93;97711.87;84721;1327;22584;-75
2022/04/08 02:40:28;;;;;;;3.40;1.60;;;;;;;8.20;66.90;97713.30;84618;1329;22597;-75
2022/04/08 02:42:38;;;;;;;2.80;1.30;;;;;;;8.14;67.07;97711.60;84695;1329;22617;-75
2022/04/08 02:44:47;;;;;;;2.80;1.10;;;;;;;8.08;67.06;97716.04;84705;1329;25299;-81
2022/04/08 02:46:58;;;;;;;5.50;1.60;;;;;;;8.03;67.27;97715.73;84631;1329;22600;-81
2022/04/08 02:49:07;;;;;;;3.10;1.70;;;;;;;8.00;67.15;97721.30;84613;1330;22592;-75
2022/04/08 02:51:16;;;;;;;1.30;1.20;;;;;;;7.99;67.24;97718.11;84687;1330;22633;-75
2022/04/08 02:53:26;;;;;;;4.10;1.60;;;;;;;7.99;67.25;97724.19;84685;1330;23821;-81
2022/04/08 02:55:36;;;;;;;4.20;1.20;;;;;;;8.00;67.18;97727.23;84686;1329;22595;-81
2022/04/08 02:57:47;;;;;;;5.50;1.60;;;;;;;8.01;67.22;97726.09;84696;1328;22591;-81
2022/04/08 02:59:57;;;;;;;1.80;1.30;;;;;;;8.01;67.03;97730.75;84587;1328;26167;-73
2022/04/08 03:02:07;;;;;;;2.40;1.10;;;;;;;8.02;67.09;97730.55;84611;1329;24284;-76
2022/04/08 03:04:20;;;;;;;4.00;1.70;;;;;;;8.02;67.15;97730.52;84635;1328;25347;-77
2022/04/08 03:06:30;;;;;;;3.20;1.00;;;;;;;8.00;67.19;97728.41;84610;1328;22626;-75
2022/04/08 03:08:42;;;;;;;5.20;1.30;;;;;;;7.98;66.96;97728.39;84605;1328;22584;-79
2022/04/08 03:10:51;;;;;;;1.50;1.20;;;;;;;7.94;66.82;97726.20;84685;1329;24177;-81
2022/04/08 03:13:02;;;;;;;3.60;1.60;;;;;;;7.90;66.71;97730.33;84652;1328;22926;-80
2022/04/08 03:15:13;;;;;;;2.20;1.20;;;;;;;7.85;66.69;97731.02;84696;1328;23978;-80
2022/04/08 03:17:22;;;;;;;4.30;1.50;;;;;;;7.81;66.68;97735.52;84609;1330;25503;-80
2022/04/08 03:19:32;;;;;;;3.20;1.50;;;;;;;7.76;66.64;97735.10;84662;1332;22648;-74
2022/04/08 03:21:41;;;;;;;1.40;0.80;;;;;;;7.74;66.83;97738.20;84674;1329;22733;-75
2022/04/08 03:23:51;;;;;;;2.80;0.90;;;;;;;7.72;66.82;97738.48;84605;1331;22651;-79
2022/04/08 03:26:04;;;;;;;4.70;1.30;;;;;;;7.72;66.67;97739.36;84684;1329;22645;-78
2022/04/08 03:28:17;;;;;;;3.60;1.20;;;;;;;7.73;66.61;97738.27;84646;1328;24264;-80
2022/04/08 03:30:27;;;;;;;2.90;1.10;;;;;;;7.75;66.53;97739.71;84608;1329;25304;-81
2022/04/08 03:32:37;;;;;;;1.70;1.10;;;;;;;7.75;66.57;97742.51;84665;1323;22715;-81
2022/04/08 03:34:57;;;;;;;2.00;1.30;;;;;;;7.74;66.43;97744.09;84577;1332;24259;-75
2022/04/08 03:37:07;;;;;;;9.00;1.50;;;;;;;7.74;66.44;97741.16;84695;1329;24276;-76
2022/04/08 03:39:19;;;;;;;3.40;1.30;;;;;;;7.73;66.39;97740.88;84576;1329;22872;-79
2022/04/08 03:41:28;;;;;;;5.40;2.50;;;;;;;7.71;66.53;97740.09;84605;1329;22604;-81
2022/04/08 03:43:38;;;;;;;4.50;1.80;;;;;;;7.71;66.43;97743.41;84720;1330;23611;-74
2022/04/08 03:45:50;;;;;;;4.90;1.50;;;;;;;7.70;66.34;97742.31;84588;1325;22593;-75
2022/04/08 03:48:00;;;;;;;3.60;1.40;;;;;;;7.69;66.20;97744.64;84648;1329;22813;-80
2022/04/08 03:50:11;;;;;;;2.30;1.30;;;;;;;7.67;66.12;97748.61;84627;1332;24784;-80
2022/04/08 03:52:20;;;;;;;3.80;1.30;;;;;;;7.64;65.66;97743.04;84672;1323;22673;-80
2022/04/08 03:54:32;;;;;;;3.70;1.00;;;;;;;7.62;65.68;97743.74;84628;1328;22724;-76
2022/04/08 03:56:42;;;;;;;2.40;1.20;;;;;;;7.59;65.55;97746.73;84615;1333;22600;-74
2022/04/08 03:58:51;;;;;;;4.00;0.90;;;;;;;7.57;65.27;97752.05;84683;1329;22591;-82
2022/04/08 04:01:01;;;;;;;3.20;1.50;;;;;;;7.53;65.29;97756.46;84689;1329;25357;-82
2022/04/08 04:03:13;;;;;;;2.10;1.30;;;;;;;7.51;65.13;97764.56;84615;1328;25265;-80
2022/04/08 04:05:23;;;;;;;4.40;1.30;;;;;;;7.50;65.00;97769.48;84634;1329;22609;-82
2022/04/08 04:07:33;;;;;;;5.20;1.30;;;;;;;7.48;64.95;97776.71;84594;1329;22592;-81
2022/04/08 04:09:46;;;;;;;3.40;1.60;;;;;;;7.45;64.92;97775.55;84694;1328;22732;-81
2022/04/08 04:11:56;;;;;;;3.90;1.80;;;;;;;7.40;64.93;97774.35;84685;1325;22951;-81
2022/04/08 04:14:04;;;;;;;;;;;;;;;7.34;64.88;97781.36;84644;1329;22581;-81
2022/04/08 04:16:13;;;;;;;4.50;1.50;;;;;;;7.26;65.17;97783.79;84697;1330;24215;-79
2022/04/08 04:18:22;;;;;;;4.40;1.70;;;;;;;7.20;65.17;97786.90;84721;1327;22661;-76
2022/04/08 04:20:32;;;;;;;3.40;1.40;;;;;;;7.17;65.44;97787.84;84678;1329;24308;-76
2022/04/08 04:22:41;;;;;;;5.80;1.60;;;;;;;7.14;65.51;97791.11;84640;1327;22740;-76
2022/04/08 04:24:51;;;;;;;4.90;1.10;;;;;;;7.13;65.76;97789.82;84697;1329;22619;-81
2022/04/08 04:27:05;;;;;;;;;;;;;;;7.13;65.67;97787.23;84628;1330;24242;-79
2022/04/08 04:29:15;;;;;;;3.60;1.10;;;;;;;7.12;65.87;97795.98;84739;1324;22597;-78
2022/04/08 04:31:26;;;;;;;5.90;2.00;;;;;;;7.14;65.88;97796.16;84629;1329;22583;-81
2022/04/08 04:33:36;;;;;;;2.40;1.00;;;;;;;7.17;65.99;97798.71;84651;1330;22736;-76
2022/04/08 04:35:46;;;;;;;2.70;1.30;;;;;;;7.21;66.22;97795.71;84688;1329;24239;-75
2022/04/08 04:37:58;;;;;;;1.80;1.10;;;;;;;7.24;66.03;97797.40;84609;1326;22610;-76
2022/04/08 04:40:09;;;;;;;3.80;1.20;;;;;;;7.27;65.85;97801.04;84555;1331;22870;-73
2022/04/08 04:42:21;;;;;;;4.40;1.40;;;;;;;7.30;66.11;97805.21;84522;1329;22772;-73
2022/04/08 04:44:31;;;;;;;3.50;1.10;;;;;;;7.31;66.07;97800.75;84703;1324;24346;-81
2022/04/08 04:46:43;;;;;;;5.60;1.60;;;;;;;7.33;65.72;97796.85;84616;1329;24254;-80
2022/04/08 04:48:52;;;;;;;3.50;1.60;;;;;;;7.34;65.35;97801.27;84624;1328;23905;-74
2022/04/08 04:51:01;;;;;;;3.40;1.30;;;;;;;7.35;65.35;97805.89;84627;1329;25442;-75
2022/04/08 04:53:14;;;;;;;3.20;1.60;;;;;;;7.37;65.18;97813.23;84708;1328;23919;-81
2022/04/08 04:55:24;;;;;;;9.80;1.70;;;;;;;7.39;65.12;97812.55;84670;1328;22613;-78
2022/04/08 04:57:33;;;;;;;5.40;1.40;;;;;;;7.43;64.99;97817.34;84610;1328;25438;-81
2022/04/08 04:59:45;;;;;;;3.00;1.00;;;;;;;7.46;64.92;97826.86;84648;1329;24892;-72
2022/04/08 05:01:57;;;;;;;3.30;1.60;;;;;;;7.47;64.92;97830.20;84589;1333;22610;-75
2022/04/08 05:04:08;;;;;;;3.40;1.20;;;;;;;7.49;64.95;97828.39;84620;1328;25342;-81
2022/04/08 05:06:18;;;;;;;3.80;1.40;;;;;;;7.51;65.17;97824.27;84663;1330;23961;-75
2022/04/08 05:08:27;;;;;;;3.50;1.10;;;;;;;7.53;65.37;97837.66;84695;1324;22635;-79
2022/04/08 05:10:36;;;;;;;3.00;1.10;;;;;;;7.56;65.58;97847.20;84678;1323;22776;-82
2022/04/08 05:12:47;;;;;;;8.30;2.00;;;;;;;7.58;65.96;97843.21;84607;1329;22619;-80
2022/04/08 05:14:59;;;;;;;2.20;1.30;;;;;;;7.60;66.19;97847.05;84689;1329;22633;-79
2022/04/08 05:17:11;;;;;;;6.40;1.50;;;;;;;7.61;66.24;97848.41;84634;1328;22596;-80
2022/04/08 05:19:21;;;;;;;2.60;1.70;;;;;;;7.62;66.27;97847.80;84686;1329;22593;-75
2022/04/08 05:21:30;;;;;;;4.60;1.20;;;;;;;7.62;66.29;97852.15;84694;1329;22600;-73
2022/04/08 05:23:40;;;;;;;3.20;1.20;;;;;;;7.62;66.15;97844.85;84618;1326;22594;-86
2022/04/08 05:25:49;;;;;;;3.20;1.60;;;;;;;7.66;66.24;97852.75;84657;1329;22603;-82
2022/04/08 05:27:59;;;;;;;4.00;1.40;;;;;;;7.70;65.97;97855.58;84638;1329;24401;-80
2022/04/08 05:30:15;;;;;;;4.20;1.40;;;;;;;7.78;66.08;97853.17;84688;1329;25439;-80
2022/04/08 05:32:25;;;;;;;3.10;1.20;;;;;;;7.87;65.89;97854.98;84692;1329;23732;-81
2022/04/08 05:34:38;;;;;;;2.40;1.10;;;;;;;7.94;65.77;97856.41;84584;1329;22623;-74
2022/04/08 05:36:49;;;;;;;7.00;2.00;;;;;;;7.98;64.94;97863.29;84622;1330;22631;-76
2022/04/08 05:38:59;;;;;;;5.90;1.80;;;;;;;7.99;65.07;97865.79;84707;1329;22606;-76
2022/04/08 05:41:12;;;;;;;6.80;1.50;;;;;;;8.02;64.96;97872.89;84689;1330;25252;-75
2022/04/08 05:43:22;;;;;;;3.20;1.20;;;;;;;8.06;64.70;97871.05;84660;1329;22607;-80
2022/04/08 05:45:31;;;;;;;4.10;1.80;;;;;;;8.10;64.63;97866.30;84718;1328;22607;-80
2022/04/08 05:47:44;;;;;;;4.60;1.50;;;;;;;8.10;64.29;97871.85;84592;1329;23951;-79
2022/04/08 05:49:53;;;;;;;4.80;1.50;;;;;;;8.08;63.76;97874.42;84705;1329;22796;-76
2022/04/08 05:52:04;;;;;;;2.80;1.20;;;;;;;8.06;63.81;97871.64;84645;1329;23936;-76
2022/04/08 05:54:16;;;;;;;2.80;0.90;;;;;;;8.06;63.65;97873.20;84675;1329;24307;-81
2022/04/08 05:56:28;;;;;;;4.30;1.50;;;;;;;8.04;63.20;97877.83;84707;1329;22988;-82
2022/04/08 05:58:40;;;;;;;5.80;1.20;;;;;;;8.00;63.81;97878.90;84660;1329;23991;-82
2022/04/08 06:00:49;;;;;;;3.80;1.10;;;;;;;7.94;64.30;97879.36;84646;1329;22584;-83
2022/04/08 06:02:59;;;;;;;2.60;1.10;;;;;;;7.86;64.57;97877.14;84629;1325;22611;-80
2022/04/08 06:05:18;;;;;;;3.70;1.30;;;;;;;7.79;64.50;97884.50;84559;1329;22614;-76
2022/04/08 06:07:29;;;;;;;3.80;1.50;;;;;;;7.73;64.85;97883.35;84644;1329;23990;-74
2022/04/08 06:09:39;;;;;;;4.20;1.80;;;;;;;7.71;65.19;97886.45;84648;1328;22605;-73
2022/04/08 06:11:49;;;;;;;61.90;37.40;;;;;;;7.71;65.19;97893.21;84630;1328;24023;-74
2022/04/08 06:13:58;;;;;;;4.60;1.60;;;;;;;7.73;65.35;97894.81;84715;1328;22643;-80
2022/04/08 06:16:08;;;;;;;4.00;1.20;;;;;;;7.78;65.59;97889.96;84698;1322;22863;-82
2022/04/08 06:18:20;;;;;;;3.10;1.00;;;;;;;7.83;65.19;97883.55;84615;1328;24231;-73
2022/04/08 06:20:30;;;;;;;4.10;1.10;;;;;;;7.87;65.00;97886.38;84629;1328;23805;-75
2022/04/08 06:22:42;;;;;;;2.80;1.10;;;;;;;7.88;64.89;97888.96;84623;1328;22715;-75
2022/04/08 06:24:52;;;;;;;3.70;1.40;;;;;;;7.88;64.84;97888.98;84649;1331;22594;-73
2022/04/08 06:27:01;;;;;;;4.70;0.90;;;;;;;7.87;64.36;97893.03;84679;1329;22757;-75
2022/04/08 06:29:11;;;;;;;7.20;1.50;;;;;;;7.85;64.40;97896.79;84663;1328;22613;-82
2022/04/08 06:31:20;;;;;;;2.40;1.10;;;;;;;7.83;64.30;97908.95;84621;1329;22616;-78
2022/04/08 06:33:30;;;;;;;4.00;1.10;;;;;;;7.79;64.79;97941.42;84644;1329;24268;-80
2022/04/08 06:35:38;;;;;;;;;;;;;;;7.74;65.72;97967.07;84645;1326;22574;-79
2022/04/08 06:37:50;;;;;;;4.30;1.10;;;;;;;7.64;66.85;97964.97;84651;1330;22845;-80
2022/04/08 06:40:04;;;;;;;1.10;0.90;;;;;;;7.55;67.07;97955.50;84709;1327;22600;-80
2022/04/08 06:42:13;;;;;;;2.20;0.90;;;;;;;7.47;67.16;97964.66;84649;1330;22612;-83
2022/04/08 06:44:25;;;;;;;2.30;0.80;;;;;;;7.44;67.70;97968.00;84666;1328;24152;-78
2022/04/08 06:46:35;;;;;;;3.40;1.80;;;;;;;7.48;68.48;97969.45;84631;1329;24165;-80
2022/04/08 06:48:48;;;;;;;3.50;1.10;;;;;;;7.66;69.44;97968.14;84699;1327;22603;-72
2022/04/08 06:50:58;;;;;;;3.30;1.10;;;;;;;8.01;69.93;97971.90;84704;1330;22600;-73
2022/04/08 06:53:08;;;;;;;1.20;0.90;;;;;;;8.38;69.83;97968.47;84674;1330;25480;-78
2022/04/08 06:55:17;;;;;;;3.50;1.00;;;;;;;8.87;69.70;97974.15;84590;1329;26482;-82
2022/04/08 06:57:26;;;;;;;2.00;0.90;;;;;;;9.35;68.87;97976.52;84654;1329;22601;-81
2022/04/08 06:59:35;;;;;;;2.50;1.20;;;;;;;9.44;66.84;97974.44;84660;1329;24282;-81
2022/04/08 07:01:44;;;;;;;6.40;1.20;;;;;;;9.43;66.55;97984.65;84695;1328;25511;-81
2022/04/08 07:03:53;;;;;;;3.00;1.10;;;;;;;9.46;66.34;97981.27;84641;1323;22597;-75
2022/04/08 07:06:03;;;;;;;4.00;1.40;;;;;;;9.71;67.26;97981.91;84647;1328;22604;-74
2022/04/08 07:08:16;;;;;;;;;;;;;;;10.41;68.70;97982.48;84720;1327;22589;-74
2022/04/08 07:10:25;;;;;;;4.10;1.40;;;;;;;10.91;65.83;97982.34;84639;1325;22576;-74
2022/04/08 07:12:38;;;;;;;1.80;0.90;;;;;;;11.01;63.87;97979.52;84723;1327;25291;-74
2022/04/08 07:14:48;;;;;;;2.40;1.40;;;;;;;10.94;63.01;97983.83;84716;1327;22583;-82
2022/04/08 07:16:57;;;;;;;2.20;1.20;;;;;;;10.85;62.47;97984.01;84634;1328;22644;-81
2022/04/08 07:19:06;;;;;;;5.80;0.90;;;;;;;10.74;62.08;97986.92;84657;1329;22679;-82
2022/04/08 07:21:17;;;;;;;2.50;1.10;;;;;;;10.65;61.86;98003.70;84686;1329;25433;-80
2022/04/08 07:23:26;;;;;;;1.60;1.10;;;;;;;10.56;61.76;98001.26;84649;1328;22586;-73
2022/04/08 07:25:39;;;;;;;2.80;1.90;;;;;;;10.70;62.04;98002.97;84631;1329;25293;-74
2022/04/08 07:27:49;;;;;;;1.90;0.90;;;;;;;10.76;61.05;98007.05;84686;1329;22863;-74
2022/04/08 07:30:01;;;;;;;2.90;0.90;;;;;;;10.67;60.79;98014.05;84683;1327;24131;-72
2022/04/08 07:32:11;;;;;;;4.50;1.00;;;;;;;10.82;61.22;98024.34;84683;1328;24304;-72
2022/04/08 07:34:20;;;;;;;2.50;1.00;;;;;;;10.93;59.70;98023.34;84689;1330;23698;-73
2022/04/08 07:36:29;;;;;;;1.60;1.10;;;;;;;10.90;59.44;98030.89;84644;1329;24303;-80
2022/04/08 07:38:41;;;;;;;2.30;1.00;;;;;;;10.84;58.97;98034.02;84612;1329;22599;-74
2022/04/08 07:40:53;;;;;;;1.90;0.80;;;;;;;10.77;58.78;98046.22;84632;1326;22701;-73
2022/04/08 07:43:02;;;;;;;1.60;0.90;;;;;;;10.74;59.35;98058.77;84654;1328;23051;-78
2022/04/08 07:45:13;;;;;;;5.70;1.80;;;;;;;10.77;59.61;98066.13;84622;1329;22657;-82
2022/04/08 07:47:29;;;;;;;3.80;2.30;;;;;;;11.00;60.30;98069.92;84622;1329;22608;-81
2022/04/08 07:49:39;;;;;;;3.20;1.00;;;;;;;11.87;61.30;98068.19;84726;1328;24202;-71
2022/04/08 07:51:49;;;;;;;1.00;0.70;;;;;;;13.06;59.67;98073.21;84642;1329;22631;-75
2022/04/08 07:53:58;;;;;;;1.50;0.90;;;;;;;14.01;56.61;98062.73;84656;1327;22597;-75
2022/04/08 07:56:08;;;;;;;2.50;1.30;;;;;;;14.52;54.25;98064.38;84600;1328;23922;-73
2022/04/08 07:58:17;;;;;;;3.00;1.00;;;;;;;14.63;52.57;98075.28;84626;1329;22659;-73
2022/04/08 08:00:29;;;;;;;1.80;1.20;;;;;;;14.84;51.37;98075.26;84715;1324;22852;-75
2022/04/08 08:02:39;;;;;;;2.00;1.10;;;;;;;14.78;50.04;98085.27;84682;1323;22903;-75
2022/04/08 08:04:51;;;;;;;1.60;1.40;;;;;;;14.44;49.62;98087.65;84711;1330;22670;-75
2022/04/08 08:07:10;;;;;;;2.70;1.20;;;;;;;14.86;51.59;98098.89;84646;1324;22592;-82
2022/04/08 08:09:19;;;;;;;1.60;1.10;;;;;;;15.28;50.51;98098.20;84723;1327;22813;-80
2022/04/08 08:11:28;;;;;;;2.90;1.00;;;;;;;15.60;49.62;98103.83;84700;1329;22711;-79
2022/04/08 08:13:38;;;;;;;2.00;1.10;;;;;;;16.02;49.45;98107.36;84711;1327;22600;-79
2022/04/08 08:15:49;;;;;;;1.90;1.10;;;;;;;16.75;48.59;98110.03;84626;1328;22794;-81
2022/04/08 08:17:59;;;;;;;1.40;0.70;;;;;;;17.51;47.45;98109.42;84689;1328;24103;-81
2022/04/08 08:20:10;;;;;;;1.50;0.90;;;;;;;18.08;45.96;98105.27;84699;1328;22608;-75
2022/04/08 08:22:20;;;;;;;3.50;1.10;;;;;;;18.39;44.47;98109.81;84653;1328;23391;-74
2022/04/08 08:24:33;;;;;;;1.10;0.80;;;;;;;18.60;42.93;98108.45;84667;1330;24147;-83
2022/04/08 08:26:42;;;;;;;2.80;0.60;;;;;;;18.39;41.28;98116.27;84618;1326;22725;-83
2022/04/08 08:28:52;;;;;;;2.10;1.00;;;;;;;17.85;40.49;98122.02;84719;1329;22580;-83
2022/04/08 08:31:04;;;;;;;1.90;0.90;;;;;;;17.38;41.41;98129.43;84621;1329;23014;-81
2022/04/08 08:33:13;;;;;;;0.70;0.60;;;;;;;17.30;42.17;98136.39;84711;1328;22604;-74
2022/04/08 08:35:26;;;;;;;2.50;0.70;;;;;;;17.71;41.70;98130.06;84691;1328;24190;-75
2022/04/08 08:37:36;;;;;;;1.20;1.00;;;;;;;17.84;41.52;98136.44;84610;1329;24104;-74
2022/04/08 08:39:43;;;;;;;;;;;;;;;17.78;40.64;98138.60;84662;1330;22662;-74
2022/04/08 08:41:51;;;;;;;;;;;;;;;17.56;40.68;98142.10;84721;1329;26470;-74
2022/04/08 08:43:58;;;;;;;;;;;;;;;17.88;41.29;98145.16;84718;1328;22855;-80
2022/04/08 08:46:06;;;;;;;;;;;;;;;18.02;39.78;98140.19;84720;1330;22596;-79
2022/04/08 08:48:15;;;;;;;;;;;;;;;18.29;40.37;98144.55;84721;1327;25230;-72
2022/04/08 08:50:22;;;;;;;;;;;;;;;19.03;40.30;98153.08;84648;1330;23905;-74
2022/04/08 08:52:32;;;;;;;;;;;;;;;19.31;38.13;98147.26;84691;1330;25437;-75
2022/04/08 08:54:42;;;;;;;;;;;;;;;19.19;37.63;98147.17;84660;1329;22716;-81
2022/04/08 08:56:50;;;;;;;;;;;;;;;18.86;37.68;98159.71;84699;1328;22571;-74
2022/04/08 08:58:56;;;;;;;;;;;;;;;18.58;38.09;98167.85;84678;1332;25244;-73
2022/04/08 09:01:04;;;;;;;;;;;;;;;18.20;38.07;98173.19;84714;1323;22550;-74
2022/04/08 09:03:11;;;;;;;;;;;;;;;17.64;38.82;98179.16;84617;1329;23451;-82
2022/04/08 09:05:23;;;;;;;;;;;;;;;17.21;39.02;98171.50;84647;1329;22580;-84
2022/04/08 09:07:31;;;;;;;;;;;;;;;16.71;39.38;98180.70;84688;1323;22921;-82
2022/04/08 09:09:39;;;;;;;;;;;;;;;16.32;39.67;98185.04;84757;1327;22587;-72
2022/04/08 09:11:49;;;;;;;;;;;;;;;16.14;40.45;98188.92;84631;1329;25426;-75
2022/04/08 09:14:03;;;;;;;;;;;;;;;16.50;40.80;98188.25;84628;1328;22582;-74
2022/04/08 09:16:13;;;;;;;;;;;;;;;17.10;40.87;98187.73;84644;1329;22586;-75
2022/04/08 09:18:21;;;;;;;;;;;;;;;17.51;39.96;98192.60;84674;1328;23048;-84
2022/04/08 09:20:42;;;;;;;;;;;;;;;17.99;39.50;98185.60;84697;1329;22698;-83
2022/04/08 09:23:00;;;;;;;;;;;;;;;18.14;38.16;98189.63;84691;1329;23028;-81
2022/04/08 09:25:11;;;;;;;;;;;;;;;17.89;37.06;98198.80;84700;1324;24179;-80
2022/04/08 09:27:18;;;;;;;;;;;;;;;17.32;37.52;98208.45;84659;1329;22632;-82
2022/04/08 09:29:28;;;;;;;;;;;;;;;16.86;37.51;98211.69;84761;1324;24964;-75
2022/04/08 09:31:39;;;;;;;;;;;;;;;16.43;38.58;98212.84;84665;1328;22567;-73
2022/04/08 09:33:52;;;;;;;;;;;;;;;16.09;39.29;98218.50;84685;1331;22579;-81
2022/04/08 09:36:03;;;;;;;;;;;;;;;15.79;40.00;98221.71;84739;1328;22576;-82
2022/04/08 09:38:12;;;;;;;;;;;;;;;15.65;40.62;98224.23;84630;1329;26487;-81
2022/04/08 09:40:19;;;;;;;;;;;;;;;15.60;41.12;98228.19;84701;1328;22689;-81
2022/04/08 09:42:43;;;;;;;;;;;;;;;15.44;40.39;98222.34;84711;1329;22575;-83
2022/04/08 09:44:51;;;;;;;;;;;;;;;15.19;41.10;98226.92;84604;1329;24206;-72
2022/04/08 09:47:01;;;;;;;;;;;;;;;15.18;41.74;98230.48;84694;1328;22566;-74
2022/04/08 09:49:09;;;;;;;;;;;;;;;15.40;42.33;98233.41;84624;1329;22569;-77
2022/04/08 09:51:20;;;;;;;;;;;;;;;15.55;42.15;98235.17;84723;1328;22586;-75
2022/04/08 09:53:30;;;;;;;;;;;;;;;15.49;41.17;98239.06;84687;1328;22677;-81
2022/04/08 09:55:39;;;;;;;;;;;;;;;15.31;41.98;98240.23;84722;1329;23754;-81
2022/04/08 09:57:49;;;;;;;;;;;;;;;15.21;42.22;98245.80;84639;1326;22561;-85
2022/04/08 09:59:59;;;;;;;;;;;;;;;15.07;41.99;98248.77;84725;1328;22577;-84
2022/04/08 10:02:07;;;;;;;;;;;;;;;14.93;42.22;98248.52;84732;1323;22593;-81
2022/04/08 10:04:17;;;;;;;;;;;;;;;14.89;42.48;98248.38;84716;1329;22573;-73
2022/04/08 10:06:24;;;;;;;;;;;;;;;14.87;42.88;98259.07;84738;1327;23903;-75
2022/04/08 10:08:34;;;;;;;;;;;;;;;14.89;43.30;98266.84;84650;1328;22600;-75
2022/04/08 10:10:44;;;;;;;;;;;;;;;14.86;43.21;98262.30;84693;1329;25419;-73
2022/04/08 10:13:08;;;;;;;;;;;;;;;14.71;42.63;98271.79;84607;1329;22664;-74
2022/04/08 10:15:18;;;;;;;;;;;;;;;14.43;42.90;98273.89;84601;1331;22660;-83
2022/04/08 10:17:25;;;;;;;;;;;;;;;14.16;42.97;98268.63;84647;1328;25256;-81
2022/04/08 10:19:35;;;;;;;;;;;;;;;13.94;43.52;98272.15;84684;1324;22677;-74
2022/04/08 10:21:43;;;;;;;;;;;;;;;13.84;43.79;98274.59;84649;1329;22583;-82
2022/04/08 10:23:55;;;;;;;;;;;;;;;13.80;44.08;98278.56;84676;1329;22571;-71
2022/04/08 10:26:04;;;;;;;;;;;;;;;13.77;44.34;98269.02;84638;1330;22545;-73
2022/04/08 10:28:12;;;;;;;;;;;;;;;13.70;44.17;98275.20;84721;1327;22608;-74
2022/04/08 10:30:24;;;;;;;;;;;;;;;13.56;44.22;98280.97;84643;1329;26024;-73